sensor_id;sensor_type;location;lat;lon;timestamp;pressure;altitude;pressure_sealevel;temperature;humidity
46223;BME280;31943;51.410;7.564;2024-03-23T00:54:07;99641.69;;;8.03;71.07
46223;BME280;31943;51.410;7.564;2024-03-23T00:56:33;99633.03;;;8.00;71.54
46223;BME280;31943;51.410;7.564;2024-03-23T00:58:58;99624.31;;;7.99;71.78
46223;BME280;31943;51.410;7.564;2024-03-23T01:01:24;99626.03;;;7.96;71.38
46223;BME280;31943;51.410;7.564;2024-03-23T01:03:49;99621.75;;;8.01;71.60
46223;BME280;31943;51.410;7.564;2024-03-23T01:06:16;99620.91;;;8.03;71.49
46223;BME280;31943;51.410;7.564;2024-03-23T01:08:43;99612.25;;;8.03;71.65
46223;BME280;31943;51.410;7.564;2024-03-23T01:11:09;99609.63;;;8.00;71.73
46223;BME280;31943;51.410;7.564;2024-03-23T01:13:34;99603.53;;;7.99;72.13
46223;BME280;31943;51.410;7.564;2024-03-23T01:16:00;99607.00;;;7.98;72.36
46223;BME280;31943;51.410;7.564;2024-03-23T01:18:25;99605.25;;;7.97;72.87
46223;BME280;31943;51.410;7.564;2024-03-23T01:20:51;99606.13;;;7.96;73.12
46223;BME280;31943;51.410;7.564;2024-03-23T01:23:18;99598.31;;;7.95;73.14
46223;BME280;31943;51.410;7.564;2024-03-23T01:25:51;99605.97;;;7.84;72.53
46223;BME280;31943;51.410;7.564;2024-03-23T01:28:17;99611.97;;;7.77;72.64
46223;BME280;31943;51.410;7.564;2024-03-23T01:30:43;99596.34;;;7.70;72.34
46223;BME280;31943;51.410;7.564;2024-03-23T01:33:08;99585.88;;;7.63;72.45
46223;BME280;31943;51.410;7.564;2024-03-23T01:35:35;99585.78;;;7.58;72.42
46223;BME280;31943;51.410;7.564;2024-03-23T01:38:00;99588.38;;;7.58;72.16
46223;BME280;31943;51.410;7.564;2024-03-23T01:40:26;99581.44;;;7.56;72.32
46223;BME280;31943;51.410;7.564;2024-03-23T01:42:57;99587.44;;;7.51;72.74
46223;BME280;31943;51.410;7.564;2024-03-23T01:45:22;99597.78;;;7.48;73.07
46223;BME280;31943;51.410;7.564;2024-03-23T01:47:49;99606.47;;;7.49;73.28
46223;BME280;31943;51.410;7.564;2024-03-23T01:50:14;99588.38;;;7.55;73.14
46223;BME280;31943;51.410;7.564;2024-03-23T01:52:40;99574.56;;;7.62;73.21
46223;BME280;31943;51.410;7.564;2024-03-23T01:55:07;99574.72;;;7.73;72.96
46223;BME280;31943;51.410;7.564;2024-03-23T01:57:32;99566.13;;;7.79;73.29
46223;BME280;31943;51.410;7.564;2024-03-23T01:59:59;99569.63;;;7.85;72.80
46223;BME280;31943;51.410;7.564;2024-03-23T02:02:25;99578.34;;;7.90;72.81
46223;BME280;31943;51.410;7.564;2024-03-23T02:04:50;99582.69;;;7.93;72.35
46223;BME280;31943;51.410;7.564;2024-03-23T02:07:16;99585.28;;;7.91;72.65
46223;BME280;31943;51.410;7.564;2024-03-23T02:09:42;99588.69;;;7.86;72.88
46223;BME280;31943;51.410;7.564;2024-03-23T02:12:08;99586.91;;;7.80;72.57
46223;BME280;31943;51.410;7.564;2024-03-23T02:14:33;99587.72;;;7.75;72.29
46223;BME280;31943;51.410;7.564;2024-03-23T02:17:00;99582.44;;;7.70;71.91
46223;BME280;31943;51.410;7.564;2024-03-23T02:19:26;99578.88;;;7.60;70.81
46223;BME280;31943;51.410;7.564;2024-03-23T02:21:51;99577.09;;;7.55;70.87
46223;BME280;31943;51.410;7.564;2024-03-23T02:24:18;99567.47;;;7.46;70.56
46223;BME280;31943;51.410;7.564;2024-03-23T02:26:44;99570.91;;;7.42;70.55
46223;BME280;31943;51.410;7.564;2024-03-23T02:29:09;99563.91;;;7.36;70.20
46223;BME280;31943;51.410;7.564;2024-03-23T02:31:35;99568.19;;;7.32;70.05
46223;BME280;31943;51.410;7.564;2024-03-23T02:34:01;99570.72;;;7.28;69.87
46223;BME280;31943;51.410;7.564;2024-03-23T02:36:26;99574.16;;;7.27;69.18
46223;BME280;31943;51.410;7.564;2024-03-23T02:38:55;99562.84;;;7.20;68.68
46223;BME280;31943;51.410;7.564;2024-03-23T02:41:22;99569.69;;;7.15;68.75
46223;BME280;31943;51.410;7.564;2024-03-23T02:43:48;99562.72;;;7.11;68.57
46223;BME280;31943;51.410;7.564;2024-03-23T02:46:14;99570.53;;;7.12;68.89
46223;BME280;31943;51.410;7.564;2024-03-23T02:48:39;99565.34;;;7.12;68.88
46223;BME280;31943;51.410;7.564;2024-03-23T02:51:05;99563.56;;;7.08;68.93
46223;BME280;31943;51.410;7.564;2024-03-23T02:53:30;99540.34;;;7.18;69.26
46223;BME280;31943;51.410;7.564;2024-03-23T02:55:58;99537.00;;;7.31;69.94
46223;BME280;31943;51.410;7.564;2024-03-23T02:58:26;99545.81;;;7.44;69.93
46223;BME280;31943;51.410;7.564;2024-03-23T03:00:51;99539.84;;;7.49;70.05
46223;BME280;31943;51.410;7.564;2024-03-23T03:03:20;99539.09;;;7.61;70.09
46223;BME280;31943;51.410;7.564;2024-03-23T03:05:46;99544.38;;;7.72;70.34
46223;BME280;31943;51.410;7.564;2024-03-23T03:08:11;99554.84;;;7.77;70.35
46223;BME280;31943;51.410;7.564;2024-03-23T03:10:40;99553.09;;;7.76;70.64
46223;BME280;31943;51.410;7.564;2024-03-23T03:13:06;99561.72;;;7.73;70.11
46223;BME280;31943;51.410;7.564;2024-03-23T03:15:33;99560.72;;;7.60;68.87
46223;BME280;31943;51.410;7.564;2024-03-23T03:17:58;99571.81;;;7.45;68.08
46223;BME280;31943;51.410;7.564;2024-03-23T03:20:24;99569.06;;;7.35;68.35
46223;BME280;31943;51.410;7.564;2024-03-23T03:22:50;99569.06;;;7.31;68.71
46223;BME280;31943;51.410;7.564;2024-03-23T03:25:16;99576.72;;;7.22;68.39
46223;BME280;31943;51.410;7.564;2024-03-23T03:27:41;99565.41;;;7.19;68.01
46223;BME280;31943;51.410;7.564;2024-03-23T03:30:07;99562.81;;;7.19;68.44
46223;BME280;31943;51.410;7.564;2024-03-23T03:32:35;99561.06;;;7.16;68.84
46223;BME280;31943;51.410;7.564;2024-03-23T03:35:00;99561.16;;;7.24;68.97
46223;BME280;31943;51.410;7.564;2024-03-23T03:37:30;99569.88;;;7.29;69.21
46223;BME280;31943;51.410;7.564;2024-03-23T03:39:56;99564.75;;;7.33;68.70
46223;BME280;31943;51.410;7.564;2024-03-23T03:42:21;99555.22;;;7.34;68.64
46223;BME280;31943;51.410;7.564;2024-03-23T03:44:47;99543.22;;;7.42;68.44
46223;BME280;31943;51.410;7.564;2024-03-23T03:47:12;99528.59;;;7.52;68.34
46223;BME280;31943;51.410;7.564;2024-03-23T03:49:39;99530.44;;;7.62;68.77
46223;BME280;31943;51.410;7.564;2024-03-23T03:52:05;99527.97;;;7.73;69.00
46223;BME280;31943;51.410;7.564;2024-03-23T03:54:31;99529.78;;;7.83;69.28
46223;BME280;31943;51.410;7.564;2024-03-23T03:56:56;99524.69;;;7.92;69.42
46223;BME280;31943;51.410;7.564;2024-03-23T03:59:22;99533.38;;;7.98;69.42
46223;BME280;31943;51.410;7.564;2024-03-23T04:01:47;99536.88;;;8.01;69.70
46223;BME280;31943;51.410;7.564;2024-03-23T04:04:13;99552.53;;;8.06;69.69
46223;BME280;31943;51.410;7.564;2024-03-23T04:06:40;99549.88;;;8.01;69.44
46223;BME280;31943;51.410;7.564;2024-03-23T04:09:05;99554.97;;;7.90;68.96
46223;BME280;31943;51.410;7.564;2024-03-23T04:11:31;99547.06;;;7.78;68.50
46223;BME280;31943;51.410;7.564;2024-03-23T04:13:56;99545.22;;;7.68;67.81
46223;BME280;31943;51.410;7.564;2024-03-23T04:16:26;99546.66;;;7.43;67.98
46223;BME280;31943;51.410;7.564;2024-03-23T04:18:52;99551.66;;;7.24;67.74
46223;BME280;31943;51.410;7.564;2024-03-23T04:21:17;99543.00;;;7.24;68.33
46223;BME280;31943;51.410;7.564;2024-03-23T04:23:47;99530.06;;;7.25;68.17
46223;BME280;31943;51.410;7.564;2024-03-23T04:26:14;99526.72;;;7.39;68.73
46223;BME280;31943;51.410;7.564;2024-03-23T04:28:40;99534.50;;;7.36;68.36
46223;BME280;31943;51.410;7.564;2024-03-23T04:31:06;99535.31;;;7.31;68.74
46223;BME280;31943;51.410;7.564;2024-03-23T04:33:31;99538.78;;;7.32;68.88
46223;BME280;31943;51.410;7.564;2024-03-23T04:35:57;99541.47;;;7.41;69.02
46223;BME280;31943;51.410;7.564;2024-03-23T04:38:22;99538.19;;;7.58;68.95
46223;BME280;31943;51.410;7.564;2024-03-23T04:40:55;99533.13;;;7.71;69.11
46223;BME280;31943;51.410;7.564;2024-03-23T04:43:20;99528.94;;;7.83;69.27
46223;BME280;31943;51.410;7.564;2024-03-23T04:45:47;99525.53;;;7.88;69.23
46223;BME280;31943;51.410;7.564;2024-03-23T04:48:12;99514.31;;;7.96;69.03
46223;BME280;31943;51.410;7.564;2024-03-23T04:50:38;99524.72;;;7.97;68.88
46223;BME280;31943;51.410;7.564;2024-03-23T04:53:04;99522.97;;;7.95;69.17
46223;BME280;31943;51.410;7.564;2024-03-23T04:55:30;99517.81;;;8.01;68.95
46223;BME280;31943;51.410;7.564;2024-03-23T04:57:57;99517.84;;;8.02;69.08
46223;BME280;31943;51.410;7.564;2024-03-23T05:00:22;99523.91;;;8.03;68.82
46223;BME280;31943;51.410;7.564;2024-03-23T05:02:48;99524.72;;;7.94;69.10
46223;BME280;31943;51.410;7.564;2024-03-23T05:05:14;99529.91;;;7.97;69.16
46223;BME280;31943;51.410;7.564;2024-03-23T05:07:40;99522.19;;;8.02;69.31
46223;BME280;31943;51.410;7.564;2024-03-23T05:10:06;99524.69;;;7.96;68.82
46223;BME280;31943;51.410;7.564;2024-03-23T05:12:31;99522.13;;;7.97;68.83
46223;BME280;31943;51.410;7.564;2024-03-23T05:14:58;99524.75;;;7.99;68.78
46223;BME280;31943;51.410;7.564;2024-03-23T05:17:24;99523.91;;;8.03;68.60
46223;BME280;31943;51.410;7.564;2024-03-23T05:19:49;99530.72;;;7.88;68.90
46223;BME280;31943;51.410;7.564;2024-03-23T05:22:15;99535.84;;;7.84;68.79
46223;BME280;31943;51.410;7.564;2024-03-23T05:24:41;99536.72;;;7.86;68.61
46223;BME280;31943;51.410;7.564;2024-03-23T05:27:07;99522.84;;;7.84;68.57
46223;BME280;31943;51.410;7.564;2024-03-23T05:29:32;99530.63;;;7.79;68.31
46223;BME280;31943;51.410;7.564;2024-03-23T05:31:59;99533.16;;;7.73;68.61
46223;BME280;31943;51.410;7.564;2024-03-23T05:34:25;99535.78;;;7.75;68.63
46223;BME280;31943;51.410;7.564;2024-03-23T05:36:50;99532.25;;;7.69;68.54
46223;BME280;31943;51.410;7.564;2024-03-23T05:39:16;99526.13;;;7.61;68.81
46223;BME280;31943;51.410;7.564;2024-03-23T05:41:41;99533.13;;;7.70;69.17
46223;BME280;31943;51.410;7.564;2024-03-23T05:44:07;99534.09;;;7.78;68.95
46223;BME280;31943;51.410;7.564;2024-03-23T05:46:33;99533.22;;;7.79;68.63
46223;BME280;31943;51.410;7.564;2024-03-23T05:49:03;99530.63;;;7.81;68.66
46223;BME280;31943;51.410;7.564;2024-03-23T05:51:29;99532.38;;;7.80;68.44
46223;BME280;31943;51.410;7.564;2024-03-23T05:53:54;99529.75;;;7.79;68.24
46223;BME280;31943;51.410;7.564;2024-03-23T05:56:20;99531.41;;;7.72;68.31
46223;BME280;31943;51.410;7.564;2024-03-23T05:58:46;99532.25;;;7.66;68.29
46223;BME280;31943;51.410;7.564;2024-03-23T06:01:11;99535.63;;;7.59;68.34
46223;BME280;31943;51.410;7.564;2024-03-23T06:03:37;99538.91;;;7.44;68.37
46223;BME280;31943;51.410;7.564;2024-03-23T06:06:04;99536.19;;;7.32;68.65
46223;BME280;31943;51.410;7.564;2024-03-23T06:08:30;99543.78;;;7.17;69.25
46223;BME280;31943;51.410;7.564;2024-03-23T06:10:55;99547.22;;;7.14;69.22
46223;BME280;31943;51.410;7.564;2024-03-23T06:13:21;99545.44;;;7.10;69.59
46223;BME280;31943;51.410;7.564;2024-03-23T06:15:46;99549.69;;;7.06;69.26
46223;BME280;31943;51.410;7.564;2024-03-23T06:18:12;99555.63;;;6.96;69.45
46223;BME280;31943;51.410;7.564;2024-03-23T06:20:37;99545.19;;;6.93;69.47
46223;BME280;31943;51.410;7.564;2024-03-23T06:23:04;99543.47;;;6.92;69.91
46223;BME280;31943;51.410;7.564;2024-03-23T06:25:30;99546.94;;;6.92;69.78
46223;BME280;31943;51.410;7.564;2024-03-23T06:27:56;99548.75;;;6.98;70.53
46223;BME280;31943;51.410;7.564;2024-03-23T06:30:22;99552.25;;;7.02;70.58
46223;BME280;31943;51.410;7.564;2024-03-23T06:32:47;99553.13;;;7.04;70.21
46223;BME280;31943;51.410;7.564;2024-03-23T06:35:13;99554.97;;;7.12;70.16
46223;BME280;31943;51.410;7.564;2024-03-23T06:37:39;99563.69;;;7.18;70.13
46223;BME280;31943;51.410;7.564;2024-03-23T06:40:08;99557.59;;;7.14;70.45
46223;BME280;31943;51.410;7.564;2024-03-23T06:42:36;99551.38;;;7.03;70.27
46223;BME280;31943;51.410;7.564;2024-03-23T06:45:02;99555.63;;;6.96;70.35
46223;BME280;31943;51.410;7.564;2024-03-23T06:47:28;99558.16;;;6.93;70.48
46223;BME280;31943;51.410;7.564;2024-03-23T06:49:56;99554.72;;;6.96;70.66
46223;BME280;31943;51.410;7.564;2024-03-23T06:52:22;99553.00;;;6.95;71.04
46223;BME280;31943;51.410;7.564;2024-03-23T06:54:48;99560.75;;;6.93;71.16
46223;BME280;31943;51.410;7.564;2024-03-23T06:57:15;99556.47;;;6.95;71.07
46223;BME280;31943;51.410;7.564;2024-03-23T06:59:41;99556.50;;;7.00;71.31
46223;BME280;31943;51.410;7.564;2024-03-23T07:02:07;99558.25;;;6.99;70.97
46223;BME280;31943;51.410;7.564;2024-03-23T07:04:32;99562.59;;;7.00;71.47
46223;BME280;31943;51.410;7.564;2024-03-23T07:06:59;99566.88;;;7.00;71.07
46223;BME280;31943;51.410;7.564;2024-03-23T07:09:24;99573.00;;;7.02;71.58
46223;BME280;31943;51.410;7.564;2024-03-23T07:11:50;99568.69;;;7.05;71.47
46223;BME280;31943;51.410;7.564;2024-03-23T07:14:17;99573.91;;;7.07;71.44
46223;BME280;31943;51.410;7.564;2024-03-23T07:16:42;99573.09;;;7.11;71.32
46223;BME280;31943;51.410;7.564;2024-03-23T07:19:07;99575.66;;;7.08;71.48
46223;BME280;31943;51.410;7.564;2024-03-23T07:21:33;99577.38;;;7.06;71.34
46223;BME280;31943;51.410;7.564;2024-03-23T07:23:59;99568.69;;;7.04;71.47
46223;BME280;31943;51.410;7.564;2024-03-23T07:26:26;99572.19;;;7.06;71.83
46223;BME280;31943;51.410;7.564;2024-03-23T07:28:52;99577.44;;;7.10;71.66
46223;BME280;31943;51.410;7.564;2024-03-23T07:31:19;99575.69;;;7.11;71.63
46223;BME280;31943;51.410;7.564;2024-03-23T07:33:45;99578.38;;;7.19;71.34
46223;BME280;31943;51.410;7.564;2024-03-23T07:36:11;99574.03;;;7.16;71.38
46223;BME280;31943;51.410;7.564;2024-03-23T07:38:37;99573.19;;;7.19;71.59
46223;BME280;31943;51.410;7.564;2024-03-23T07:41:05;99578.50;;;7.26;71.38
46223;BME280;31943;51.410;7.564;2024-03-23T07:43:31;99574.28;;;7.36;71.55
46223;BME280;31943;51.410;7.564;2024-03-23T07:45:57;99573.53;;;7.43;71.21
46223;BME280;31943;51.410;7.564;2024-03-23T07:48:25;99577.03;;;7.47;70.90
46223;BME280;31943;51.410;7.564;2024-03-23T07:51:01;99575.28;;;7.47;70.30
46223;BME280;31943;51.410;7.564;2024-03-23T07:53:27;99579.63;;;7.50;70.77
46223;BME280;31943;51.410;7.564;2024-03-23T07:55:55;99572.78;;;7.55;70.27
46223;BME280;31943;51.410;7.564;2024-03-23T07:58:20;99581.47;;;7.57;70.37
46223;BME280;31943;51.410;7.564;2024-03-23T08:00:46;99571.00;;;7.52;70.32
46223;BME280;31943;51.410;7.564;2024-03-23T08:03:11;99568.50;;;7.59;70.64
46223;BME280;31943;51.410;7.564;2024-03-23T08:05:38;99574.59;;;7.61;70.40
46223;BME280;31943;51.410;7.564;2024-03-23T08:08:04;99573.78;;;7.66;69.95
46223;BME280;31943;51.410;7.564;2024-03-23T08:10:30;99571.25;;;7.74;69.90
46223;BME280;31943;51.410;7.564;2024-03-23T08:12:55;99573.03;;;7.80;70.11
46223;BME280;31943;51.410;7.564;2024-03-23T08:15:21;99568.78;;;7.85;69.65
46223;BME280;31943;51.410;7.564;2024-03-23T08:17:47;99580.16;;;7.96;69.93
46223;BME280;31943;51.410;7.564;2024-03-23T08:20:12;99575.88;;;8.04;69.51
46223;BME280;31943;51.410;7.564;2024-03-23T08:22:39;99574.31;;;8.22;69.47
46223;BME280;31943;51.410;7.564;2024-03-23T08:25:06;99578.63;;;8.23;69.19
46223;BME280;31943;51.410;7.564;2024-03-23T08:27:32;99576.00;;;8.17;68.99
46223;BME280;31943;51.410;7.564;2024-03-23T08:29:57;99572.50;;;8.13;68.12
46223;BME280;31943;51.410;7.564;2024-03-23T08:32:23;99578.69;;;8.29;67.58
46223;BME280;31943;51.410;7.564;2024-03-23T08:34:48;99575.25;;;8.30;67.54
46223;BME280;31943;51.410;7.564;2024-03-23T08:37:14;99578.63;;;8.23;67.68
46223;BME280;31943;51.410;7.564;2024-03-23T08:39:42;99566.50;;;8.20;67.50
46223;BME280;31943;51.410;7.564;2024-03-23T08:42:08;99570.78;;;8.15;67.39
46223;BME280;31943;51.410;7.564;2024-03-23T08:44:33;99578.56;;;8.15;67.47
46223;BME280;31943;51.410;7.564;2024-03-23T08:46:59;99563.78;;;8.09;67.49
46223;BME280;31943;51.410;7.564;2024-03-23T08:49:24;99569.09;;;8.19;67.12
46223;BME280;31943;51.410;7.564;2024-03-23T08:51:50;99569.09;;;8.19;66.91
46223;BME280;31943;51.410;7.564;2024-03-23T08:54:16;99573.56;;;8.37;66.89
46223;BME280;31943;51.410;7.564;2024-03-23T08:56:43;99574.53;;;8.43;66.25
46223;BME280;31943;51.410;7.564;2024-03-23T08:59:09;99575.47;;;8.53;65.07
46223;BME280;31943;51.410;7.564;2024-03-23T09:01:34;99575.44;;;8.51;65.10
46223;BME280;31943;51.410;7.564;2024-03-23T09:04:00;99569.34;;;8.45;64.79
46223;BME280;31943;51.410;7.564;2024-03-23T09:06:25;99571.94;;;8.48;64.65
46223;BME280;31943;51.410;7.564;2024-03-23T09:08:51;99565.16;;;8.70;63.85
46223;BME280;31943;51.410;7.564;2024-03-23T09:11:16;99570.41;;;8.75;63.86
46223;BME280;31943;51.410;7.564;2024-03-23T09:13:43;99572.22;;;8.89;63.00
46223;BME280;31943;51.410;7.564;2024-03-23T09:16:09;99556.72;;;9.11;62.14
46223;BME280;31943;51.410;7.564;2024-03-23T09:18:36;99573.22;;;9.08;62.09
46223;BME280;31943;51.410;7.564;2024-03-23T09:21:02;99544.53;;;8.98;61.49
46223;BME280;31943;51.410;7.564;2024-03-23T09:23:28;99556.75;;;9.13;61.70
46223;BME280;31943;51.410;7.564;2024-03-23T09:25:55;99558.56;;;9.34;61.03
46223;BME280;31943;51.410;7.564;2024-03-23T09:28:22;99552.53;;;9.45;60.89
46223;BME280;31943;51.410;7.564;2024-03-23T09:30:49;99554.25;;;9.39;60.66
46223;BME280;31943;51.410;7.564;2024-03-23T09:33:14;99555.00;;;9.13;60.29
46223;BME280;31943;51.410;7.564;2024-03-23T09:35:41;99591.31;;;8.87;61.58
46223;BME280;31943;51.410;7.564;2024-03-23T09:38:07;99607.22;;;8.23;62.62
46223;BME280;31943;51.410;7.564;2024-03-23T09:40:33;99598.75;;;7.55;64.08
46223;BME280;31943;51.410;7.564;2024-03-23T09:42:58;99601.75;;;7.19;64.73
46223;BME280;31943;51.410;7.564;2024-03-23T09:45:27;99610.03;;;6.93;65.64
46223;BME280;31943;51.410;7.564;2024-03-23T09:47:55;99603.84;;;6.83;65.94
46223;BME280;31943;51.410;7.564;2024-03-23T09:50:21;99609.06;;;6.85;66.05
46223;BME280;31943;51.410;7.564;2024-03-23T09:52:47;99603.94;;;6.89;65.87
46223;BME280;31943;51.410;7.564;2024-03-23T09:55:13;99605.75;;;6.95;66.12
46223;BME280;31943;51.410;7.564;2024-03-23T09:57:41;99599.84;;;7.04;66.22
46223;BME280;31943;51.410;7.564;2024-03-23T10:00:09;99599.13;;;7.17;66.21
46223;BME280;31943;51.410;7.564;2024-03-23T10:02:37;99599.38;;;7.36;66.29
46223;BME280;31943;51.410;7.564;2024-03-23T10:05:19;99597.88;;;7.56;66.54
46223;BME280;31943;51.410;7.564;2024-03-23T10:07:45;99597.25;;;7.76;65.99
46223;BME280;31943;51.410;7.564;2024-03-23T10:10:11;99593.06;;;7.88;66.10
46223;BME280;31943;51.410;7.564;2024-03-23T10:12:44;99590.69;;;8.11;65.22
46223;BME280;31943;51.410;7.564;2024-03-23T10:15:17;99584.13;;;8.49;64.99
46223;BME280;31943;51.410;7.564;2024-03-23T10:17:43;99578.25;;;8.81;64.13
46223;BME280;31943;51.410;7.564;2024-03-23T10:20:11;99576.59;;;8.90;63.68
46223;BME280;31943;51.410;7.564;2024-03-23T10:22:38;99561.91;;;9.05;62.55
46223;BME280;31943;51.410;7.564;2024-03-23T10:25:07;99566.22;;;9.01;62.32
46223;BME280;31943;51.410;7.564;2024-03-23T10:27:33;99563.59;;;8.95;62.65
46223;BME280;31943;51.410;7.564;2024-03-23T10:30:08;99562.81;;;9.15;62.84
46223;BME280;31943;51.410;7.564;2024-03-23T10:32:34;99546.41;;;9.28;62.03
46223;BME280;31943;51.410;7.564;2024-03-23T10:35:16;99537.81;;;9.54;61.84
46223;BME280;31943;51.410;7.564;2024-03-23T10:37:44;99547.38;;;9.64;61.26
46223;BME280;31943;51.410;7.564;2024-03-23T10:40:11;99530.91;;;9.79;61.05
46223;BME280;31943;51.410;7.564;2024-03-23T10:42:37;99529.19;;;9.81;60.39
46223;BME280;31943;51.410;7.564;2024-03-23T10:45:05;99533.53;;;9.97;59.80
46223;BME280;31943;51.410;7.564;2024-03-23T10:47:31;99526.56;;;9.84;59.34
46223;BME280;31943;51.410;7.564;2024-03-23T10:49:57;99530.06;;;9.89;59.39
46223;BME280;31943;51.410;7.564;2024-03-23T10:52:24;99525.72;;;9.94;58.74
46223;BME280;31943;51.410;7.564;2024-03-23T10:54:51;99524.84;;;9.70;59.10
46223;BME280;31943;51.410;7.564;2024-03-23T10:57:18;99510.94;;;9.85;57.75
46223;BME280;31943;51.410;7.564;2024-03-23T10:59:45;99518.78;;;10.04;57.18
46223;BME280;31943;51.410;7.564;2024-03-23T11:02:18;99504.00;;;10.17;56.26
46223;BME280;31943;51.410;7.564;2024-03-23T11:04:46;99513.59;;;10.33;55.52
46223;BME280;31943;51.410;7.564;2024-03-23T11:07:31;99510.09;;;10.42;54.48
46223;BME280;31943;51.410;7.564;2024-03-23T11:09:58;99509.22;;;10.61;55.53
46223;BME280;31943;51.410;7.564;2024-03-23T11:12:28;99511.75;;;10.80;55.35
46223;BME280;31943;51.410;7.564;2024-03-23T11:14:58;99505.66;;;10.85;53.31
46223;BME280;31943;51.410;7.564;2024-03-23T11:17:26;99510.84;;;10.95;53.04
46223;BME280;31943;51.410;7.564;2024-03-23T11:19:56;99508.19;;;11.12;52.09
46223;BME280;31943;51.410;7.564;2024-03-23T11:22:41;99513.53;;;10.67;51.64
46223;BME280;31943;51.410;7.564;2024-03-23T11:25:14;99550.06;;;10.08;52.66
46223;BME280;31943;51.410;7.564;2024-03-23T11:27:39;99615.09;;;9.64;53.14
46223;BME280;31943;51.410;7.564;2024-03-23T11:30:16;99625.97;;;8.83;55.35
46223;BME280;31943;51.410;7.564;2024-03-23T11:32:44;99619.38;;;8.24;57.08
46223;BME280;31943;51.410;7.564;2024-03-23T11:35:10;99626.97;;;8.02;58.07
46223;BME280;31943;51.410;7.564;2024-03-23T11:37:36;99608.66;;;7.90;58.53
46223;BME280;31943;51.410;7.564;2024-03-23T11:40:19;99609.41;;;7.78;59.31
46223;BME280;31943;51.410;7.564;2024-03-23T11:42:45;99605.19;;;7.89;58.78
46223;BME280;31943;51.410;7.564;2024-03-23T11:45:12;99604.38;;;7.95;58.17
46223;BME280;31943;51.410;7.564;2024-03-23T11:47:37;99598.31;;;7.98;57.93
46223;BME280;31943;51.410;7.564;2024-03-23T11:50:03;99591.47;;;8.04;58.19
46223;BME280;31943;51.410;7.564;2024-03-23T11:52:29;99588.22;;;8.25;58.34
46223;BME280;31943;51.410;7.564;2024-03-23T11:55:03;99588.47;;;8.53;56.45
46223;BME280;31943;51.410;7.564;2024-03-23T11:57:30;99571.22;;;8.67;55.94
46223;BME280;31943;51.410;7.564;2024-03-23T11:59:56;99564.44;;;8.96;56.10
46223;BME280;31943;51.410;7.564;2024-03-23T12:02:21;99560.22;;;9.10;55.94
46223;BME280;31943;51.410;7.564;2024-03-23T12:04:47;99541.19;;;9.23;56.00
46223;BME280;31943;51.410;7.564;2024-03-23T12:07:14;99546.44;;;9.42;55.74
46223;BME280;31943;51.410;7.564;2024-03-23T12:09:40;99542.16;;;9.62;55.14
46223;BME280;31943;51.410;7.564;2024-03-23T12:12:10;99541.31;;;9.69;55.48
46223;BME280;31943;51.410;7.564;2024-03-23T12:14:40;99539.63;;;9.87;55.11
46223;BME280;31943;51.410;7.564;2024-03-23T12:17:10;99531.81;;;10.01;55.07
46223;BME280;31943;51.410;7.564;2024-03-23T12:19:35;99525.75;;;10.29;55.11
46223;BME280;31943;51.410;7.564;2024-03-23T12:22:02;99530.09;;;10.32;55.31
46223;BME280;31943;51.410;7.564;2024-03-23T12:24:28;99524.00;;;10.36;53.04
46223;BME280;31943;51.410;7.564;2024-03-23T12:26:53;99522.25;;;9.98;51.46
46223;BME280;31943;51.410;7.564;2024-03-23T12:29:19;99517.91;;;10.13;50.91
46223;BME280;31943;51.410;7.564;2024-03-23T12:31:46;99521.44;;;10.41;51.58
46223;BME280;31943;51.410;7.564;2024-03-23T12:34:11;99518.78;;;10.53;50.39
46223;BME280;31943;51.410;7.564;2024-03-23T12:36:37;99512.66;;;10.60;51.33
46223;BME280;31943;51.410;7.564;2024-03-23T12:39:02;99520.53;;;10.48;50.05
46223;BME280;31943;51.410;7.564;2024-03-23T12:41:29;99529.22;;;10.16;51.06
46223;BME280;31943;51.410;7.564;2024-03-23T12:43:55;99532.69;;;10.00;52.32
46223;BME280;31943;51.410;7.564;2024-03-23T12:46:20;99545.69;;;9.77;52.03
46223;BME280;31943;51.410;7.564;2024-03-23T12:48:47;99554.22;;;9.33;54.53
46223;BME280;31943;51.410;7.564;2024-03-23T12:51:13;99560.19;;;9.08;55.37
46223;BME280;31943;51.410;7.564;2024-03-23T12:53:39;99556.59;;;8.85;56.18
46223;BME280;31943;51.410;7.564;2024-03-23T12:56:04;99577.22;;;8.60;55.83
46223;BME280;31943;51.410;7.564;2024-03-23T12:58:30;99560.75;;;8.55;55.57
46223;BME280;31943;51.410;7.564;2024-03-23T13:00:57;99567.69;;;8.58;55.73
46223;BME280;31943;51.410;7.564;2024-03-23T13:03:26;99566.06;;;8.74;55.58
46223;BME280;31943;51.410;7.564;2024-03-23T13:05:53;99566.19;;;8.94;54.22
46223;BME280;31943;51.410;7.564;2024-03-23T13:08:18;99548.16;;;9.27;52.06
46223;BME280;31943;51.410;7.564;2024-03-23T13:10:44;99550.81;;;9.54;51.26
46223;BME280;31943;51.410;7.564;2024-03-23T13:13:10;99553.50;;;9.77;51.72
46223;BME280;31943;51.410;7.564;2024-03-23T13:15:35;99555.19;;;9.61;52.00
46223;BME280;31943;51.410;7.564;2024-03-23T13:18:01;99565.50;;;9.32;52.30
46223;BME280;31943;51.410;7.564;2024-03-23T13:20:26;99555.88;;;9.10;53.14
46223;BME280;31943;51.410;7.564;2024-03-23T13:22:53;99569.69;;;9.00;52.50
46223;BME280;31943;51.410;7.564;2024-03-23T13:25:19;99558.31;;;8.86;53.64
46223;BME280;31943;51.410;7.564;2024-03-23T13:27:44;99561.97;;;9.19;53.61
46223;BME280;31943;51.410;7.564;2024-03-23T13:30:10;99556.03;;;9.52;53.19
46223;BME280;31943;51.410;7.564;2024-03-23T13:32:36;99556.97;;;9.77;52.92
46223;BME280;31943;51.410;7.564;2024-03-23T13:35:03;99543.09;;;10.04;52.90
46223;BME280;31943;51.410;7.564;2024-03-23T13:37:29;99548.34;;;10.29;52.16
46223;BME280;31943;51.410;7.564;2024-03-23T13:39:56;99543.97;;;10.25;52.26
46223;BME280;31943;51.410;7.564;2024-03-23T13:42:24;99566.56;;;9.95;52.27
46223;BME280;31943;51.410;7.564;2024-03-23T13:44:49;99556.88;;;9.48;53.20
46223;BME280;31943;51.410;7.564;2024-03-23T13:47:15;99569.72;;;9.05;55.05
46223;BME280;31943;51.410;7.564;2024-03-23T13:49:40;99579.06;;;8.72;56.74
46223;BME280;31943;51.410;7.564;2024-03-23T13:52:06;99579.81;;;8.56;57.64
46223;BME280;31943;51.410;7.564;2024-03-23T13:54:31;99558.09;;;8.49;57.69
46223;BME280;31943;51.410;7.564;2024-03-23T13:56:58;99547.91;;;8.86;56.78
46223;BME280;31943;51.410;7.564;2024-03-23T13:59:24;99562.00;;;9.22;56.16